Time;durP1;ratioP1;P1;durP2;ratioP2;P2;SDS_P1;SDS_P2;PMS_P1;PMS_P2;Temp;Humidity;BMP_temperature;BMP_pressure;BME280_temperature;BME280_humidity;BME280_pressure;Samples;Min_cycle;Max_cycle;Signal;HPM_P1;HPM_P2
2023/04/15 00:01:32;;;;;;;9.02;4.22;;;;;;;13.99;61.96;100278.28;6218955;22;20121;-88
2023/04/15 00:03:58;;;;;;;17.38;4.60;;;;;;;14.03;62.12;100280.41;6225240;22;20003;-88
2023/04/15 00:06:24;;;;;;;9.55;3.80;;;;;;;14.08;61.69;100272.56;6214232;22;20015;-89
2023/04/15 00:08:49;;;;;;;10.15;3.72;;;;;;;14.00;62.09;100252.94;6231298;22;20019;-90
2023/04/15 00:11:15;;;;;;;12.13;4.05;;;;;;;14.03;61.85;100242.59;6248125;22;20007;-90
2023/04/15 00:13:42;;;;;;;15.15;5.55;;;;;;;14.21;61.56;100266.47;6219037;22;20004;-91
2023/04/15 00:16:07;;;;;;;10.75;4.07;;;;;;;14.21;61.08;100271.00;6243869;22;20019;-89
2023/04/15 00:18:34;;;;;;;12.40;4.13;;;;;;;14.27;60.82;100265.66;6194539;22;20018;-89
2023/04/15 00:21:00;;;;;;;9.20;3.75;;;;;;;14.35;60.48;100276.34;6218434;22;20008;-89
2023/04/15 00:23:25;;;;;;;9.27;3.58;;;;;;;14.21;60.19;100250.25;6218716;22;20058;-90
2023/04/15 00:25:51;;;;;;;13.48;4.30;;;;;;;14.21;60.15;100236.72;6223769;22;20060;-89
2023/04/15 00:28:17;;;;;;;10.57;3.75;;;;;;;14.24;59.44;100230.09;6200166;22;20048;-89
2023/04/15 00:30:43;;;;;;;10.93;4.30;;;;;;;14.35;60.86;100280.91;6224989;22;20031;-90
2023/04/15 00:33:08;;;;;;;8.70;4.05;;;;;;;13.99;61.52;100252.09;6200768;22;20011;-89
2023/04/15 00:35:36;;;;;;;9.52;3.92;;;;;;;13.95;61.70;100250.81;6228706;22;20491;-86
2023/04/15 00:38:03;;;;;;;14.07;4.20;;;;;;;14.10;61.47;100267.81;6205152;22;20007;-89
2023/04/15 00:40:29;;;;;;;11.55;4.43;;;;;;;14.26;61.43;100290.22;6227418;22;20096;-89
2023/04/15 00:42:54;;;;;;;9.68;4.35;;;;;;;14.13;61.63;100270.09;6222799;22;20021;-90
2023/04/15 00:45:20;;;;;;;9.20;3.85;;;;;;;14.13;60.86;100251.19;6195253;22;20011;-90
2023/04/15 00:47:46;;;;;;;9.75;3.67;;;;;;;14.29;59.96;100268.19;6245400;22;20010;-88
2023/04/15 00:50:11;;;;;;;13.93;4.15;;;;;;;14.11;61.77;100271.34;6218983;22;20117;-90
2023/04/15 00:52:38;;;;;;;11.10;4.30;;;;;;;14.29;61.91;100295.22;6230674;22;19996;-88
2023/04/15 00:55:04;;;;;;;9.15;3.97;;;;;;;14.17;61.12;100265.16;6194954;22;20008;-89
2023/04/15 00:57:30;;;;;;;8.98;4.07;;;;;;;14.38;61.66;100291.34;6221903;22;20007;-89
2023/04/15 00:59:56;;;;;;;;;;;;;;;14.40;62.06;100296.53;6227655;22;20008;-88
2023/04/15 01:02:21;;;;;;;12.40;4.28;;;;;;;14.28;61.36;100280.88;6245053;22;19914;-88
2023/04/15 01:04:47;;;;;;;10.50;4.22;;;;;;;14.30;61.26;100270.66;6219017;22;20421;-89
2023/04/15 01:07:13;;;;;;;10.63;3.92;;;;;;;14.50;61.55;100297.91;6245537;22;20274;-90
2023/04/15 01:09:39;;;;;;;;;;;;;;;14.51;61.03;100294.16;6195630;22;20050;-89
2023/04/15 01:12:04;;;;;;;12.55;3.97;;;;;;;14.37;60.18;100276.13;6245266;22;20188;-90
2023/04/15 01:14:30;;;;;;;10.27;3.90;;;;;;;14.41;60.33;100273.91;6227468;22;20306;-90
2023/04/15 01:16:56;;;;;;;12.27;4.10;;;;;;;14.32;61.32;100267.78;6197819;22;20393;-87
2023/04/15 01:19:22;;;;;;;9.57;4.05;;;;;;;14.43;61.55;100269.13;6232031;22;20066;-86
2023/04/15 01:21:47;;;;;;;10.98;4.22;;;;;;;14.49;61.20;100271.03;6211726;22;20027;-87
2023/04/15 01:24:13;;;;;;;;;;;;;;;14.66;61.10;100290.56;6220330;22;20037;-88
2023/04/15 01:26:39;;;;;;;13.55;4.15;;;;;;;14.56;61.38;100274.66;6244356;22;20367;-88
2023/04/15 01:29:05;;;;;;;;;;;;;;;14.72;61.82;100292.47;6196397;22;20007;-87
2023/04/15 01:31:31;;;;;;;15.25;4.32;;;;;;;14.49;61.76;100268.34;6218947;22;19965;-88
2023/04/15 01:33:57;;;;;;;13.10;4.45;;;;;;;14.61;62.04;100277.63;6195513;22;20063;-88
2023/04/15 01:36:22;;;;;;;;;;;;;;;14.75;61.88;100287.53;6228094;22;20024;-88
2023/04/15 01:38:48;;;;;;;11.25;4.88;;;;;;;14.37;61.43;100257.22;6267906;22;19928;-88
2023/04/15 01:41:13;;;;;;;;;;;;;;;14.54;62.53;100288.41;6209226;22;20302;-88
2023/04/15 01:43:39;;;;;;;;;;;;;;;14.61;62.51;100290.31;6219652;22;20309;-89
2023/04/15 01:46:05;;;;;;;10.30;4.03;;;;;;;14.37;62.27;100251.81;6219874;22;19915;-88
2023/04/15 01:48:31;;;;;;;11.50;3.90;;;;;;;14.62;60.46;100284.72;6249115;22;20320;-89
2023/04/15 01:50:58;;;;;;;11.13;3.65;;;;;;;14.56;60.31;100261.13;6222497;22;20070;-88
2023/04/15 01:53:24;;;;;;;11.48;3.83;;;;;;;14.64;60.18;100266.41;6224157;22;19999;-89
2023/04/15 01:55:50;;;;;;;9.80;4.18;;;;;;;14.59;61.19;100289.69;6199121;22;20000;-89
2023/04/15 01:58:16;;;;;;;16.42;4.85;;;;;;;14.59;61.08;100273.47;6221892;22;20003;-91
2023/04/15 02:00:42;;;;;;;;;;;;;;;14.70;61.86;100287.28;6196078;22;20020;-89
2023/04/15 02:03:08;;;;;;;16.67;4.28;;;;;;;14.60;61.70;100270.53;6277112;22;19914;-90
2023/04/15 02:05:34;;;;;;;;;;;;;;;14.74;61.83;100279.59;6222075;22;20441;-89
2023/04/15 02:07:59;;;;;;;11.80;3.97;;;;;;;14.75;61.02;100278.56;6247048;22;19910;-88
2023/04/15 02:10:26;;;;;;;12.55;3.95;;;;;;;14.69;60.96;100284.75;6247884;22;19992;-89
2023/04/15 02:12:51;;;;;;;17.90;5.40;;;;;;;14.66;61.34;100275.16;6240654;22;20020;-88
2023/04/15 02:15:17;;;;;;;14.20;4.63;;;;;;;14.57;62.00;100262.81;6245832;22;20019;-92
2023/04/15 02:17:44;;;;;;;11.27;3.70;;;;;;;14.69;60.98;100272.06;6220440;22;20007;-89
2023/04/15 02:20:10;;;;;;;13.00;3.80;;;;;;;14.77;59.90;100287.31;6247989;22;20022;-88
2023/04/15 02:22:36;;;;;;;15.43;4.13;;;;;;;14.53;60.67;100248.81;6246094;22;20011;-88
2023/04/15 02:25:02;;;;;;;15.57;4.13;;;;;;;14.64;61.22;100268.28;6220942;22;19996;-88
2023/04/15 02:27:27;;;;;;;;;;;;;;;14.76;61.55;100288.34;6222817;22;19987;-89
2023/04/15 02:29:53;;;;;;;16.38;4.57;;;;;;;14.75;62.66;100286.69;6245067;22;19907;-90
2023/04/15 02:32:19;;;;;;;;;;;;;;;14.78;62.89;100289.00;6223719;22;19992;-91
2023/04/15 02:34:44;;;;;;;;;;;;;;;14.76;63.14;100291.06;6271151;22;19911;-90
2023/04/15 02:37:11;;;;;;;13.93;4.35;;;;;;;14.76;62.64;100291.88;6270812;22;19987;-90
2023/04/15 02:39:37;;;;;;;14.35;4.25;;;;;;;14.76;62.37;100286.47;6223598;22;20012;-90
2023/04/15 02:42:03;;;;;;;18.35;5.10;;;;;;;14.60;62.59;100267.00;6200799;22;20004;-88
2023/04/15 02:44:30;;;;;;;16.02;4.65;;;;;;;14.76;63.12;100291.88;6228899;22;20086;-89
2023/04/15 02:46:57;;;;;;;13.40;4.38;;;;;;;14.71;63.01;100272.72;6221249;22;20433;-90
2023/04/15 02:49:23;;;;;;;18.27;4.80;;;;;;;14.77;62.88;100279.19;6197626;22;20007;-89
2023/04/15 02:51:48;;;;;;;;;;;;;;;14.85;62.71;100289.88;6201763;22;20074;-90
2023/04/15 02:54:17;;;;;;;10.45;4.10;;;;;;;14.59;62.35;100251.81;6246803;22;19914;-89
2023/04/15 02:56:43;;;;;;;12.93;4.70;;;;;;;14.74;62.76;100283.13;6221722;22;20008;-90
2023/04/15 02:59:09;;;;;;;10.13;4.50;;;;;;;14.68;62.61;100270.41;6197867;22;20421;-88
2023/04/15 03:01:34;;;;;;;;;;;;;;;14.89;62.04;100291.16;6221159;22;20007;-91
2023/04/15 03:04:00;;;;;;;;;;;;;;;14.82;62.22;100305.66;6246595;22;20296;-90
2023/04/15 03:06:25;;;;;;;;;;;;;;;14.81;62.64;100304.00;6248675;22;19907;-88
2023/04/15 03:08:51;;;;;;;10.52;4.28;;;;;;;14.77;62.07;100304.41;6247331;22;20357;-90
2023/04/15 03:11:17;;;;;;;;;;;;;;;14.77;61.77;100298.13;6221113;22;20494;-91
2023/04/15 03:13:42;;;;;;;;;;;;;;;14.77;61.94;100304.41;6248552;22;19907;-89
2023/04/15 03:16:08;;;;;;;12.05;4.15;;;;;;;14.58;61.79;100272.59;6245190;22;19978;-89
2023/04/15 03:18:34;;;;;;;10.15;3.63;;;;;;;14.57;61.43;100274.47;6195396;22;20014;-90
2023/04/15 03:20:59;;;;;;;;;;;;;;;14.62;61.82;100300.09;6197417;22;20086;-88
2023/04/15 03:23:25;;;;;;;14.02;3.90;;;;;;;14.54;61.84;100288.41;6247680;22;19998;-89
2023/04/15 03:25:51;;;;;;;16.00;4.90;;;;;;;14.61;61.65;100293.00;6227756;22;20019;-89
2023/04/15 03:28:16;;;;;;;11.60;3.78;;;;;;;14.44;61.97;100265.38;6221429;22;20104;-89
2023/04/15 03:30:42;;;;;;;10.77;4.00;;;;;;;14.48;62.29;100278.31;6195051;22;20476;-89
2023/04/15 03:33:07;;;;;;;;;;;;;;;14.57;62.35;100287.16;6197648;22;20000;-85
2023/04/15 03:35:33;;;;;;;;;;;;;;;14.53;62.49;100288.56;6246361;22;19914;-88
2023/04/15 03:37:58;;;;;;;;;;;;;;;14.51;62.60;100277.91;6245583;22;19931;-90
2023/04/15 03:40:24;;;;;;;;;;;;;;;14.53;62.35;100283.97;6222440;22;19907;-90
2023/04/15 03:42:50;;;;;;;18.08;5.13;;;;;;;14.28;63.12;100261.09;6245049;22;19918;-91
2023/04/15 03:45:15;;;;;;;;;;;;;;;14.46;63.22;100301.19;6195404;22;20081;-89
2023/04/15 03:47:41;;;;;;;12.45;4.43;;;;;;;14.27;64.37;100294.56;6247029;22;20359;-89
2023/04/15 03:50:07;;;;;;;;;;;;;;;14.15;63.21;100289.69;6246209;22;20004;-90
2023/04/15 03:52:32;;;;;;;12.93;4.30;;;;;;;14.12;63.29;100287.38;6219430;22;19959;-89
2023/04/15 03:54:58;;;;;;;10.70;3.95;;;;;;;14.17;62.96;100294.06;6222034;22;20049;-88
2023/04/15 03:57:24;;;;;;;9.98;4.50;;;;;;;14.13;62.97;100290.91;6194764;22;20004;-90
2023/04/15 03:59:50;;;;;;;12.30;4.30;;;;;;;13.89;62.59;100254.28;6220394;22;20016;-89
2023/04/15 04:02:15;;;;;;;;;;;;;;;14.28;62.35;100299.81;6220637;22;20073;-88
2023/04/15 04:04:40;;;;;;;;;;;;;;;14.33;62.31;100294.63;6220101;22;20331;-90
2023/04/15 04:07:06;;;;;;;10.85;4.15;;;;;;;14.34;62.17;100287.34;6219551;22;20233;-89
2023/04/15 04:09:33;;;;;;;15.68;4.65;;;;;;;14.38;62.03;100285.13;6220898;22;20107;-89
2023/04/15 04:11:58;;;;;;;11.65;3.90;;;;;;;14.43;61.79;100288.91;6199428;22;20011;-89
2023/04/15 04:14:28;;;;;;;9.32;3.80;;;;;;;14.62;61.22;100297.41;6222184;22;20008;-89
2023/04/15 04:16:54;;;;;;;13.52;4.70;;;;;;;14.63;61.31;100290.94;6199987;22;20010;-90
2023/04/15 04:19:20;;;;;;;8.80;4.00;;;;;;;14.63;60.61;100293.66;6220967;22;20389;-90
2023/04/15 04:21:45;;;;;;;9.80;3.70;;;;;;;14.78;60.29;100297.94;6220648;22;20018;-90
2023/04/15 04:24:11;;;;;;;;;;;;;;;14.73;60.95;100308.53;6224261;22;20134;-88
2023/04/15 04:26:36;;;;;;;12.85;4.00;;;;;;;14.56;60.93;100296.28;6219618;22;19917;-90
2023/04/15 04:29:02;;;;;;;8.40;3.65;;;;;;;14.53;60.98;100281.28;6197507;22;20012;-90
2023/04/15 04:31:28;;;;;;;10.73;4.05;;;;;;;14.74;60.80;100309.34;6194345;22;20023;-88
2023/04/15 04:33:53;;;;;;;;;;;;;;;14.46;61.85;100333.66;6219063;22;20313;-88
2023/04/15 04:36:18;;;;;;;;;;;;;;;14.61;61.79;100325.47;6248486;22;19907;-89
2023/04/15 04:38:44;;;;;;;11.03;3.80;;;;;;;14.49;61.95;100307.06;6226729;22;19907;-88
2023/04/15 04:41:10;;;;;;;11.02;3.63;;;;;;;14.42;61.90;100306.16;6220884;22;20082;-91
2023/04/15 04:43:35;;;;;;;11.00;3.90;;;;;;;14.66;62.00;100323.03;6222225;22;20019;-90
2023/04/15 04:46:01;;;;;;;12.60;3.72;;;;;;;14.65;61.95;100305.13;6194361;22;20011;-89
2023/04/15 04:48:26;;;;;;;;;;;;;;;14.65;62.04;100326.75;6194832;22;20117;-88
2023/04/15 04:50:52;;;;;;;;;;;;;;;14.60;62.35;100324.66;6247597;22;20313;-89
2023/04/15 04:53:17;;;;;;;15.57;4.00;;;;;;;14.64;62.23;100325.09;6224040;22;19913;-89
2023/04/15 04:55:43;;;;;;;9.15;3.20;;;;;;;14.82;61.82;100336.28;6226037;22;20007;-89
2023/04/15 04:58:08;;;;;;;13.77;3.75;;;;;;;14.64;62.12;100315.09;6262089;22;19999;-87
2023/04/15 05:00:34;;;;;;;10.57;4.63;;;;;;;14.54;61.78;100285.69;6237940;22;20004;-89
2023/04/15 05:02:59;;;;;;;;;;;;;;;14.95;61.82;100330.13;6235689;22;20004;-87
2023/04/15 05:05:25;;;;;;;;;;;;;;;14.84;61.95;100328.78;6259223;22;19943;-90
2023/04/15 05:07:51;;;;;;;10.20;3.78;;;;;;;14.64;62.40;100306.16;6255551;22;19986;-88
2023/04/15 05:10:17;;;;;;;15.75;3.90;;;;;;;14.67;62.85;100319.28;6230785;22;20102;-88
2023/04/15 05:12:43;;;;;;;11.60;3.70;;;;;;;14.65;62.89;100315.94;6208060;22;20026;-89
2023/04/15 05:15:09;;;;;;;10.80;4.03;;;;;;;14.95;62.26;100316.59;6204294;22;20043;-88
2023/04/15 05:17:34;;;;;;;12.90;4.15;;;;;;;15.10;61.77;100330.00;6227647;22;20061;-86
2023/04/15 05:20:00;;;;;;;;;;;;;;;15.11;61.82;100326.28;6225549;22;20019;-90
2023/04/15 05:22:26;;;;;;;;;;;;;;;15.05;62.19;100327.06;6227749;22;19965;-88
2023/04/15 05:24:51;;;;;;;8.88;3.83;;;;;;;14.94;61.97;100321.16;6251499;22;19915;-90
2023/04/15 05:27:18;;;;;;;;;;;;;;;15.13;61.89;100329.63;6222350;22;20004;-87
2023/04/15 05:29:43;;;;;;;10.68;4.00;;;;;;;14.83;62.60;100323.59;6220871;22;19942;-88
2023/04/15 05:32:09;;;;;;;10.10;3.72;;;;;;;14.82;62.85;100311.94;6229469;22;20008;-88
2023/04/15 05:34:35;;;;;;;11.90;4.05;;;;;;;14.97;62.39;100326.16;6262574;22;20078;-89
2023/04/15 05:37:01;;;;;;;;;;;;;;;15.10;62.42;100327.28;6226999;22;20003;-90
2023/04/15 05:39:26;;;;;;;;;;;;;;;14.92;62.81;100319.69;6226812;22;19918;-88
2023/04/15 05:41:52;;;;;;;10.13;3.97;;;;;;;14.93;62.59;100330.31;6248260;22;20319;-90
2023/04/15 05:44:17;;;;;;;11.15;3.90;;;;;;;14.79;63.00;100320.41;6221617;22;20003;-90
2023/04/15 05:46:43;;;;;;;10.57;4.22;;;;;;;14.85;62.84;100327.75;6234137;22;19992;-90
2023/04/15 05:49:08;;;;;;;17.60;4.55;;;;;;;14.89;62.76;100322.78;6238147;22;19999;-88
2023/04/15 05:51:34;;;;;;;12.27;4.40;;;;;;;14.67;63.00;100306.59;6240191;22;20015;-87
2023/04/15 05:54:00;;;;;;;;;;;;;;;14.79;63.47;100379.94;6233851;22;19996;-87
2023/04/15 05:56:26;;;;;;;13.90;5.13;;;;;;;14.11;65.26;100342.44;6256364;22;19985;-89
2023/04/15 05:58:52;;;;;;;14.98;4.93;;;;;;;14.09;65.63;100363.47;6244136;22;20023;-88
2023/04/15 06:01:17;;;;;;;16.42;4.68;;;;;;;13.99;65.97;100379.13;6264603;22;20074;-87
2023/04/15 06:03:43;;;;;;;10.18;4.72;;;;;;;13.97;66.81;100386.59;6240823;22;20007;-87
2023/04/15 06:06:09;;;;;;;14.90;5.30;;;;;;;14.16;66.76;100398.66;6228332;22;19999;-87
2023/04/15 06:08:34;;;;;;;;;;;;;;;14.12;67.17;100419.84;6224159;22;20019;-89
2023/04/15 06:11:00;;;;;;;13.43;5.82;;;;;;;13.98;67.93;100409.91;6249023;22;19907;-87
2023/04/15 06:13:26;;;;;;;;;;;;;;;14.03;69.66;100431.78;6233144;22;20456;-87
2023/04/15 06:15:52;;;;;;;19.38;7.40;;;;;;;13.78;71.23;100414.19;6258967;22;19957;-86
2023/04/15 06:18:19;;;;;;;17.85;8.20;;;;;;;13.70;71.97;100410.59;6231053;22;20003;-88
2023/04/15 06:20:45;;;;;;;19.95;8.50;;;;;;;13.55;73.91;100409.72;6226965;22;20007;-89
2023/04/15 06:23:11;;;;;;;21.83;9.50;;;;;;;13.47;75.19;100431.44;6247011;22;20015;-88
2023/04/15 06:25:36;;;;;;;18.65;10.02;;;;;;;13.45;75.69;100420.81;6220842;22;20035;-89
2023/04/15 06:28:02;;;;;;;21.38;10.95;;;;;;;13.42;75.13;100404.16;6247538;22;20059;-86
2023/04/15 06:30:27;;;;;;;26.95;10.88;;;;;;;13.26;75.66;100408.66;6245256;22;20075;-89
2023/04/15 06:32:54;;;;;;;20.70;11.02;;;;;;;13.41;76.47;100437.56;6220360;22;20416;-88
2023/04/15 06:35:19;;;;;;;24.67;11.40;;;;;;;13.52;76.32;100429.84;6222138;22;19999;-89
2023/04/15 06:37:45;;;;;;;22.55;10.82;;;;;;;13.57;76.34;100432.00;6195552;22;20003;-88
2023/04/15 06:40:11;;;;;;;22.27;10.75;;;;;;;13.71;75.63;100439.25;6247469;22;20007;-87
2023/04/15 06:42:37;;;;;;;23.15;10.65;;;;;;;13.70;74.89;100415.16;6224269;22;20007;-88
2023/04/15 06:45:03;;;;;;;23.42;10.38;;;;;;;13.79;75.71;100419.44;6223875;22;20363;-87
2023/04/15 06:47:28;;;;;;;;;;;;;;;13.98;75.00;100428.81;6244884;22;20000;-88
2023/04/15 06:49:54;;;;;;;24.40;10.63;;;;;;;13.85;74.55;100382.69;6273343;22;19905;-88
2023/04/15 06:52:20;;;;;;;21.50;10.43;;;;;;;14.24;74.94;100422.06;6219713;22;20012;-91
2023/04/15 06:54:45;;;;;;;18.95;9.57;;;;;;;14.15;74.63;100414.03;6247393;22;20440;-87
2023/04/15 06:57:11;;;;;;;;;;;;;;;14.44;74.73;100431.19;6222399;22;20050;-87
2023/04/15 06:59:36;;;;;;;19.15;9.35;;;;;;;14.68;73.71;100421.91;6245049;22;19903;-88
2023/04/15 07:02:02;;;;;;;;;;;;;;;14.99;72.78;100421.56;6221133;22;20493;-86
2023/04/15 07:04:27;;;;;;;18.70;9.65;;;;;;;14.92;72.98;100414.44;6251004;22;19914;-87
2023/04/15 07:06:54;;;;;;;;;;;;;;;15.14;72.10;100417.94;6225455;22;20007;-87
2023/04/15 07:09:21;;;;;;;19.70;9.25;;;;;;;15.26;71.22;100426.34;6250140;22;19977;-87
2023/04/15 07:11:46;;;;;;;17.63;7.78;;;;;;;15.18;70.69;100432.75;6223271;22;20058;-89
2023/04/15 07:14:12;;;;;;;11.73;6.03;;;;;;;15.22;69.06;100450.28;6196970;22;20346;-89
2023/04/15 07:16:37;;;;;;;;;;;;;;;15.21;69.55;100464.84;6195983;22;20041;-87
2023/04/15 07:19:03;;;;;;;12.15;6.13;;;;;;;15.28;69.80;100457.59;6247384;22;19907;-89
2023/04/15 07:21:29;;;;;;;17.05;7.35;;;;;;;15.32;68.30;100453.47;6220261;22;20416;-88
2023/04/15 07:23:54;;;;;;;;;;;;;;;15.51;68.17;100451.94;6197903;22;20016;-89
2023/04/15 07:26:20;;;;;;;;;;;;;;;15.54;68.78;100454.25;6220518;22;20257;-87
2023/04/15 07:28:46;;;;;;;13.82;5.75;;;;;;;15.37;68.32;100459.13;6220711;22;20314;-88
2023/04/15 07:31:11;;;;;;;;;;;;;;;15.47;67.85;100464.19;6197972;22;20014;-87
2023/04/15 07:33:37;;;;;;;12.68;5.90;;;;;;;15.32;67.75;100445.34;6245116;22;19934;-88
2023/04/15 07:36:02;;;;;;;;;;;;;;;15.56;67.47;100454.88;6195168;22;20012;-87
2023/04/15 07:38:28;;;;;;;;;;;;;;;15.73;67.00;100454.59;6248132;22;19907;-88
2023/04/15 07:40:54;;;;;;;15.90;5.70;;;;;;;15.61;67.29;100402.81;6244581;22;19908;-88
2023/04/15 07:43:20;;;;;;;12.35;6.10;;;;;;;16.01;65.73;100416.56;6219625;22;20007;-87
2023/04/15 07:45:46;;;;;;;14.95;6.20;;;;;;;16.40;65.26;100424.00;6197606;22;20019;-88
2023/04/15 07:48:11;;;;;;;;;;;;;;;17.04;62.89;100452.56;6220123;22;20011;-88
2023/04/15 07:50:37;;;;;;;;;;;;;;;17.23;62.19;100450.88;6219743;22;20281;-88
2023/04/15 07:53:02;;;;;;;;;;;;;;;17.77;60.53;100450.78;6247023;22;19922;-87
2023/04/15 07:55:29;;;;;;;;;;;;;;;18.12;59.27;100454.88;6245560;22;19947;-89
2023/04/15 07:57:55;;;;;;;12.10;4.97;;;;;;;18.44;58.56;100462.25;6245826;22;19903;-86
2023/04/15 08:00:21;;;;;;;15.73;5.78;;;;;;;18.62;57.68;100446.03;6195295;22;20312;-90
2023/04/15 08:02:47;;;;;;;;;;;;;;;18.86;55.72;100446.31;6218752;22;20003;-88
2023/04/15 08:05:13;;;;;;;9.30;4.07;;;;;;;18.47;54.44;100407.38;6228130;22;20268;-87
2023/04/15 08:07:38;;;;;;;;;;;;;;;18.77;53.66;100449.31;6195819;22;20004;-89
2023/04/15 08:10:04;;;;;;;11.20;2.97;;;;;;;18.45;52.94;100456.63;6270843;22;19976;-88
2023/04/15 08:12:30;;;;;;;8.45;3.35;;;;;;;18.45;53.27;100443.00;6218948;22;20089;-88
2023/04/15 08:14:56;;;;;;;;;;;;;;;18.39;52.89;100462.09;6221234;22;19995;-89
2023/04/15 08:17:22;;;;;;;10.52;3.65;;;;;;;18.17;53.61;100440.63;6251179;22;19903;-86
2023/04/15 08:19:47;;;;;;;11.40;3.85;;;;;;;18.18;53.55;100427.88;6288776;22;20517;-87
2023/04/15 08:22:13;;;;;;;7.75;3.47;;;;;;;18.26;53.23;100433.91;6237108;22;20026;-87
2023/04/15 08:24:39;;;;;;;9.27;3.60;;;;;;;18.21;53.60;100430.13;6218481;22;20000;-86
2023/04/15 08:27:06;;;;;;;15.23;3.95;;;;;;;18.34;53.76;100458.13;6165771;23;20028;-88
2023/04/15 08:29:32;;;;;;;;;;;;;;;18.64;53.12;100449.38;6214869;23;20068;-89
2023/04/15 08:31:59;;;;;;;11.43;3.58;;;;;;;18.64;53.05;100430.31;6252565;23;19908;-87
2023/04/15 08:34:25;;;;;;;11.68;4.00;;;;;;;18.67;52.86;100416.25;6201663;23;20111;-88
2023/04/15 08:36:50;;;;;;;;;;;;;;;18.70;53.15;100443.03;6197646;23;20015;-87
2023/04/15 08:39:16;;;;;;;10.13;3.88;;;;;;;18.40;53.08;100436.53;6215545;23;19986;-89
2023/04/15 08:41:52;;;;;;;8.15;3.67;;;;;;;18.16;52.73;100400.03;6190160;23;20016;-88
2023/04/15 08:44:19;;;;;;;10.68;3.28;;;;;;;17.78;53.57;100412.50;6188796;23;20015;-89
2023/04/15 08:46:44;;;;;;;10.20;3.53;;;;;;;17.92;55.52;100438.63;6215447;23;20011;-87
2023/04/15 08:49:11;;;;;;;;;;;;;;;18.12;55.27;100454.88;6169666;23;20027;-88
2023/04/15 08:51:37;;;;;;;5.32;2.95;;;;;;;18.38;54.27;100441.34;6195588;23;20227;-88
2023/04/15 08:54:03;;;;;;;5.28;2.30;;;;;;;19.09;52.08;100435.66;6166801;23;20023;-88
2023/04/15 08:56:29;;;;;;;;;;;;;;;19.15;51.94;100442.97;6175663;23;20090;-88
2023/04/15 08:58:55;;;;;;;7.93;2.47;;;;;;;18.66;52.75;100444.56;6200449;23;19946;-88
2023/04/15 09:01:20;;;;;;;;;;;;;;;19.12;51.61;100467.91;6175654;23;20701;-87
2023/04/15 09:03:48;;;;;;;11.65;2.70;;;;;;;19.06;50.99;100443.44;6222041;23;19931;-88
2023/04/15 09:06:13;;;;;;;6.53;2.25;;;;;;;19.01;51.08;100443.28;6215675;23;20352;-89
2023/04/15 09:08:39;;;;;;;;;;;;;;;19.25;51.04;100453.34;6191517;23;20079;-88
2023/04/15 09:11:04;;;;;;;11.35;4.10;;;;;;;19.06;51.26;100438.84;6215748;23;19931;-87
2023/04/15 09:13:30;;;;;;;11.05;2.70;;;;;;;18.94;51.28;100433.28;6192037;23;20010;-89
2023/04/15 09:15:57;;;;;;;10.10;3.40;;;;;;;19.12;51.41;100454.28;6193019;23;20114;-89
2023/04/15 09:18:33;;;;;;;7.82;2.95;;;;;;;19.03;50.92;100454.78;6167987;23;20008;-89
2023/04/15 09:21:12;;;;;;;7.22;2.80;;;;;;;18.96;51.19;100455.69;6169248;23;20095;-89
2023/04/15 09:23:39;;;;;;;7.43;2.70;;;;;;;19.44;50.94;100462.41;6195231;23;20114;-87
2023/04/15 09:26:05;;;;;;;8.50;2.90;;;;;;;20.58;47.90;100449.16;6192859;23;20398;-88
2023/04/15 09:28:30;;;;;;;10.75;2.75;;;;;;;21.54;45.50;100443.63;6167630;23;20004;-89
2023/04/15 09:30:57;;;;;;;8.38;2.90;;;;;;;22.02;44.92;100461.63;6199563;23;20019;-92
2023/04/15 09:33:23;;;;;;;7.20;2.33;;;;;;;22.09;43.31;100434.13;6168197;23;20008;-91
2023/04/15 09:36:00;;;;;;;5.78;2.60;;;;;;;21.29;44.53;100447.38;6216968;23;20095;-88
2023/04/15 09:38:26;;;;;;;11.93;4.43;;;;;;;21.17;45.52;100437.53;6193684;23;20000;-90
2023/04/15 09:40:52;;;;;;;10.07;2.90;;;;;;;21.42;45.47;100440.03;6191427;23;20091;-89
2023/04/15 09:43:17;;;;;;;4.30;1.92;;;;;;;22.02;43.50;100450.69;6167005;23;20096;-88
2023/04/15 09:45:47;;;;;;;3.80;2.10;;;;;;;22.11;43.17;100449.22;6192939;23;20012;-88
2023/04/15 09:48:20;;;;;;;5.05;1.90;;;;;;;22.60;42.35;100445.28;6217286;23;20387;-89
2023/04/15 09:50:48;;;;;;;6.32;2.25;;;;;;;23.22;40.49;100436.22;6170619;23;20035;-86
2023/04/15 09:53:20;;;;;;;7.45;2.15;;;;;;;24.23;38.12;100447.81;6170415;23;20004;-90
2023/04/15 09:55:57;;;;;;;4.32;1.70;;;;;;;23.56;39.00;100456.22;6172228;23;20453;-88
2023/04/15 09:58:26;;;;;;;5.65;1.80;;;;;;;23.43;40.15;100448.31;6169811;23;20004;-91
2023/04/15 10:00:53;;;;;;;5.85;1.60;;;;;;;23.17;39.88;100467.13;6190676;23;20016;-88
2023/04/15 10:03:20;;;;;;;4.95;1.90;;;;;;;22.69;40.67;100441.88;6190787;23;20385;-88
2023/04/15 10:05:47;;;;;;;6.10;2.05;;;;;;;22.91;40.73;100441.16;6167667;23;20091;-90
2023/04/15 10:08:12;;;;;;;6.22;2.38;;;;;;;23.03;40.81;100452.09;6189691;23;20124;-88
2023/04/15 10:10:38;;;;;;;7.80;2.22;;;;;;;22.76;40.96;100455.44;6215078;23;20005;-87
2023/04/15 10:13:05;;;;;;;3.83;1.80;;;;;;;22.75;40.61;100445.53;6193402;23;20036;-89
2023/04/15 10:15:30;;;;;;;7.28;2.17;;;;;;;22.41;41.49;100463.81;6190869;23;20096;-90
2023/04/15 10:17:56;;;;;;;5.63;2.30;;;;;;;23.61;39.47;100453.53;6190131;23;20000;-88
2023/04/15 10:20:22;;;;;;;5.43;2.50;;;;;;;24.11;38.44;100446.25;6167606;23;20400;-89
2023/04/15 10:22:47;;;;;;;6.07;2.10;;;;;;;23.83;38.81;100414.34;6193617;23;20040;-89
2023/04/15 10:25:14;;;;;;;7.18;1.83;;;;;;;24.25;38.19;100438.47;6213430;23;20012;-90
2023/04/15 10:27:41;;;;;;;5.88;2.00;;;;;;;24.75;37.56;100453.88;6191300;23;20433;-88
2023/04/15 10:30:07;;;;;;;5.80;2.13;;;;;;;25.03;37.02;100456.34;6190774;23;20090;-89
2023/04/15 10:32:33;;;;;;;4.90;2.22;;;;;;;24.11;38.34;100427.88;6191585;23;20111;-89
2023/04/15 10:34:59;;;;;;;6.85;2.17;;;;;;;25.61;36.12;100436.41;6189647;23;20062;-89
2023/04/15 10:37:36;;;;;;;6.60;2.15;;;;;;;27.78;32.42;100429.88;6190016;23;20016;-88
2023/04/15 10:40:26;;;;;;;5.22;2.20;;;;;;;29.02;30.35;100432.81;6167573;23;20082;-89
2023/04/15 10:42:52;;;;;;;6.22;2.30;;;;;;;30.80;27.55;100431.81;6247366;23;20499;-89
2023/04/15 10:45:18;;;;;;;6.03;2.20;;;;;;;31.62;26.50;100449.88;6173389;23;20056;-89
2023/04/15 10:47:43;;;;;;;8.95;2.30;;;;;;;31.97;25.95;100442.00;6230868;23;20019;-89
2023/04/15 10:50:09;;;;;;;10.05;2.20;;;;;;;32.02;25.09;100413.28;6190280;23;20008;-91
2023/04/15 10:52:36;;;;;;;8.60;2.30;;;;;;;33.38;23.37;100424.19;6189981;23;20000;-90
2023/04/15 10:55:18;;;;;;;6.68;1.98;;;;;;;33.70;23.15;100436.19;6192467;23;20081;-90
2023/04/15 10:57:44;;;;;;;9.32;2.75;;;;;;;34.24;22.65;100405.34;6215053;23;20067;-89
2023/04/15 11:00:10;;;;;;;5.93;2.20;;;;;;;34.18;22.08;100431.75;6215302;23;20119;-91
2023/04/15 11:02:47;;;;;;;7.28;2.33;;;;;;;33.51;22.43;100430.03;6243451;23;19996;-89
2023/04/15 11:05:16;;;;;;;7.10;3.17;;;;;;;32.47;23.55;100413.38;6215372;23;20194;-91
2023/04/15 11:07:57;;;;;;;9.55;2.58;;;;;;;32.67;23.11;100420.44;6191540;23;20019;-89
2023/04/15 11:10:29;;;;;;;4.05;2.00;;;;;;;32.56;23.01;100426.25;6214707;23;20004;-89
2023/04/15 11:13:14;;;;;;;6.82;2.50;;;;;;;31.21;23.65;100442.28;6214637;23;20364;-89
2023/04/15 11:15:46;;;;;;;6.32;1.92;;;;;;;31.27;23.38;100429.13;6170390;23;19996;-88
2023/04/15 11:18:19;;;;;;;6.88;2.60;;;;;;;30.94;24.21;100409.72;6165852;23;20015;-89
2023/04/15 11:20:58;;;;;;;4.13;1.45;;;;;;;30.79;24.13;100419.09;6191234;23;20441;-89
2023/04/15 11:23:33;;;;;;;4.32;1.55;;;;;;;30.47;24.90;100426.22;6193502;23;20479;-89
2023/04/15 11:26:00;;;;;;;4.55;1.55;;;;;;;30.92;24.38;100440.53;6218331;23;20008;-87
2023/04/15 11:28:26;;;;;;;4.05;1.70;;;;;;;30.04;26.03;100425.41;6216077;23;20341;-89
2023/04/15 11:30:54;;;;;;;5.47;1.80;;;;;;;30.68;25.23;100418.41;6202029;23;20028;-89
2023/04/15 11:33:20;;;;;;;7.45;1.80;;;;;;;29.70;27.47;100442.19;6192686;23;20004;-90